Terminal Aerodrome Forecast
Issued by NWS

Home | Current Version | Previous Version | Text Only | Print | Product List | Glossary On
Versions: 1 2 3 4 5 6 7 8 9 10 11 12 13 14 15 16
117
FTUS42 KTBW 241142
TAFLAL
TAF
KLAL 241142Z 2412/2512 VRB04KT P6SM SCT015 BKN040
      TEMPO 2412/2413 4SM SHRA BKN015
     FM241300 35006KT P6SM SCT025 BKN050
      TEMPO 2413/2416 BKN025
     FM241900 32008KT P6SM FEW025 SCT050
     FM250000 33006KT P6SM FEW040=

USA.gov is the U.S. government's official web portal to all federal, state and local government web resources and services.